Date,TemperatureHighF,TemperatureAvgF,TemperatureLowF,DewpointHighF,DewpointAvgF,DewpointLowF,HumidityHigh,HumidityAvg,HumidityLow,PressureMaxIn,PressureMinIn,WindSpeedMaxMPH,WindSpeedAvgMPH,GustSpeedMaxMPH,PrecipitationSumIn
2014-1-1,51.0,46.8,34.0,31.0,28.9,26.0,72,50,44,0.00,40.00,8,4,13,0.00
2014-1-2,57.0,47.4,36.0,29.0,27.3,26.0,69,46,34,0.00,40.00,18,12,30,0.00
2014-1-3,48.0,37.4,20.0,33.0,21.8,6.0,86,56,25,0.00,40.00,12,6,28,0.00
2014-1-4,43.0,27.7,16.0,18.0,11.2,-99.9,90,57,22,0.00,40.00,11,4,16,0.00
2014-1-5,48.0,33.2,26.0,12.0,8.0,4.0,50,36,16,0.00,40.00,9,4,13,0.00
2014-1-6,45.0,34.4,26.0,9.0,5.9,2.0,37,30,21,0.00,40.00,15,9,22,0.00
2014-1-7,44.0,37.1,35.0,36.0,27.3,8.0,98,71,30,0.00,40.00,13,10,26,0.03
2014-1-8,42.0,36.7,32.0,35.0,33.3,31.0,98,88,70,0.00,40.00,21,12,43,0.08
2014-1-9,39.0,32.4,27.0,33.0,29.9,25.0,99,90,77,0.00,40.00,21,13,41,0.09
2014-1-10,41.0,37.6,35.0,33.0,28.8,21.0,85,71,49,0.00,40.00,19,12,39,0.01
2014-1-11,44.0,34.1,27.0,35.0,29.4,-99.9,98,87,59,0.00,40.00,26,15,49,0.13
2014-1-12,35.0,30.9,27.0,35.0,30.3,26.0,100,97,94,0.00,40.00,16,12,32,0.07
2014-1-16,57.0,55.8,54.0,13.0,13.0,13.0,19,18,17,0.00,40.00,6,5,10,0.00
2014-1-17,56.0,54.2,51.0,18.0,16.6,15.0,24,22,20,0.00,40.00,11,8,17,0.00
2014-1-18,57.0,50.8,40.0,20.0,11.4,-99.9,41,23,23,0.00,40.00,10,6,17,0.00
2014-1-19,57.0,53.0,48.0,23.0,19.6,16.0,34,27,22,0.00,40.00,10,5,18,0.00
2014-1-20,47.0,43.5,36.0,28.0,27.3,26.0,69,53,45,0.00,40.00,3,2,6,0.00
2014-1-21,55.0,46.9,37.0,24.0,21.1,19.0,54,38,24,0.00,40.00,12,6,22,0.00
2014-1-22,46.0,36.7,28.0,29.0,27.4,24.0,98,73,45,0.00,40.00,4,2,9,0.00
2014-1-23,29.0,22.8,20.0,29.0,21.6,18.0,99,95,93,0.00,40.00,3,2,9,0.00
2014-1-24,37.0,24.9,16.0,33.0,21.7,14.0,94,88,65,0.00,40.00,5,2,9,0.00
2014-1-25,56.0,46.4,33.0,19.0,9.2,-99.9,51,28,23,0.00,40.00,10,2,19,0.00
2014-1-26,61.0,55.7,43.0,21.0,18.5,16.0,38,24,18,0.00,40.00,7,4,16,0.00
2014-1-27,34.0,28.0,25.0,29.0,23.0,19.0,91,81,68,0.00,40.00,10,3,13,0.00
2014-1-28,44.0,38.5,31.0,44.0,37.7,31.0,100,97,86,0.00,40.00,12,9,22,0.29
2014-1-29,44.0,38.7,33.0,44.0,36.1,27.0,100,91,67,0.00,40.00,19,14,36,0.34
2014-1-30,39.0,31.1,25.0,27.0,22.2,19.0,83,70,48,0.00,40.00,12,8,27,0.01
2014-1-31,37.0,28.8,24.0,22.0,20.8,19.0,86,73,50,0.00,40.00,11,7,16,0.00
2014-2-1,41.0,29.2,21.0,22.0,16.8,-99.9,90,65,31,0.00,40.00,9,6,17,0.00
2014-2-2,37.0,29.6,25.0,25.0,20.3,16.0,95,69,48,0.00,40.00,11,7,21,0.00
2014-2-3,36.0,26.5,22.0,25.0,18.6,13.0,95,74,50,0.00,40.00,10,5,20,0.09
2014-2-4,23.0,17.6,8.0,20.0,14.9,4.0,94,89,81,0.00,40.00,3,2,8,0.02
2014-2-5,9.0,4.4,-1.0,4.0,-0.4,-6.0,85,80,76,0.00,40.00,3,2,9,0.00
2014-2-6,21.0,4.3,-2.0,17.0,-0.9,-7.0,87,79,68,0.00,40.00,12,2,21,0.00
2014-2-7,32.0,24.5,9.0,31.0,22.5,5.0,96,92,85,0.00,40.00,16,5,29,0.03
2014-2-8,34.0,12.5,8.0,33.0,9.2,4.0,96,86,83,0.00,40.00,16,2,29,0.01
2014-2-9,47.0,36.4,33.0,34.0,32.1,29.0,97,85,59,0.00,40.00,17,10,30,0.74
2014-2-10,45.0,38.6,35.0,34.0,32.1,29.0,96,78,59,0.00,40.00,15,12,32,0.04
2014-2-11,42.0,35.9,33.0,34.0,30.5,26.0,98,81,66,0.00,40.00,22,12,41,0.19
2014-2-12,41.0,37.8,34.0,40.0,36.7,33.0,98,97,93,0.00,40.00,24,18,45,1.07
2014-2-13,44.0,38.9,33.0,37.0,32.2,29.0,98,78,55,0.00,40.00,22,12,36,0.08
2014-2-14,38.0,35.1,32.0,37.0,34.5,32.0,100,99,98,0.00,40.00,17,11,31,1.12
2014-2-15,50.0,39.0,30.0,43.0,34.0,-99.9,100,87,59,0.00,40.00,23,13,48,0.38
2014-2-16,40.0,31.5,26.0,26.0,22.9,19.0,94,71,51,0.00,40.00,20,14,34,0.19
2014-2-17,41.0,34.2,31.0,33.0,27.7,21.0,99,78,60,0.00,40.00,30,17,55,0.02
2014-2-18,41.0,34.3,24.0,36.0,31.0,22.0,99,88,67,0.00,40.00,25,12,46,0.07
2014-2-19,36.0,27.3,20.0,29.0,22.6,18.0,94,83,67,0.00,40.00,14,9,25,0.15
2014-2-20,38.0,31.6,27.0,33.0,28.3,23.0,96,87,76,0.00,40.00,14,11,25,0.03
2014-2-21,48.0,35.4,30.0,30.0,27.4,24.0,93,75,43,0.00,40.00,13,8,22,0.00
2014-2-22,52.0,38.7,30.0,27.0,21.4,-99.9,75,53,35,0.00,40.00,10,5,16,0.00
2014-2-23,49.0,37.9,28.0,35.0,27.1,22.0,91,68,35,0.00,40.00,19,12,33,0.00
2014-2-24,55.0,41.8,32.0,42.0,37.2,32.0,99,85,60,0.00,40.00,12,6,18,0.00
2014-2-25,32.0,27.7,23.0,32.0,27.1,22.0,99,97,95,0.00,40.00,4,2,11,0.01
2014-2-26,28.0,24.7,22.0,27.0,23.7,21.0,97,96,95,0.00,40.00,3,2,7,0.01
2014-2-27,45.0,33.3,25.0,40.0,32.0,24.0,99,95,82,0.00,40.00,12,5,18,0.08
2014-2-28,43.0,34.6,29.0,37.0,32.8,29.0,99,93,74,0.00,40.00,6,3,11,0.03
2014-3-1,40.0,32.2,28.0,37.0,30.2,-99.9,99,95,89,0.00,40.00,12,3,18,0.22
2014-3-2,44.0,39.0,36.0,41.0,36.0,31.0,99,90,77,0.00,40.00,22,13,38,0.16
2014-3-3,45.0,38.0,33.0,40.0,35.7,32.0,98,92,78,0.00,40.00,17,12,31,0.33
2014-3-4,52.0,42.3,34.0,37.0,33.7,31.0,94,74,49,0.00,40.00,14,10,24,0.05
2014-3-5,51.0,44.7,40.0,45.0,39.2,34.0,94,81,71,0.00,40.00,18,13,36,0.18
2014-3-6,41.0,37.1,33.0,35.0,32.3,29.0,95,83,63,0.00,40.00,24,15,50,0.02
2014-3-7,56.0,41.3,32.0,32.0,28.3,23.0,88,64,30,0.00,40.00,14,8,33,0.01
2014-3-8,61.0,43.5,32.0,43.0,30.2,-99.9,84,64,30,0.00,40.00,16,11,35,0.07
2014-3-9,51.0,45.2,38.0,47.0,42.4,37.0,98,90,73,0.00,40.00,18,13,35,0.33
2014-3-10,43.0,34.7,27.0,37.0,30.4,23.0,99,85,56,0.00,40.00,11,8,20,0.23
2014-3-11,50.0,35.3,24.0,26.0,21.4,16.0,91,62,27,0.00,40.00,6,4,18,0.01
2014-3-12,61.0,45.0,27.0,22.0,18.0,12.0,73,40,15,0.00,40.00,10,7,19,0.00
2014-3-13,64.0,49.5,37.0,28.0,22.7,17.0,56,38,18,0.00,40.00,12,7,19,0.00
2014-3-14,54.0,43.1,35.0,38.0,30.9,24.0,90,64,37,0.00,40.00,20,11,30,0.01
2014-3-15,67.0,46.0,30.0,27.0,21.0,-99.9,81,45,16,0.00,40.00,13,9,20,0.01
2014-3-16,64.0,51.0,34.0,33.0,17.3,4.0,95,31,10,0.00,40.00,21,14,43,0.03
2014-3-17,44.0,33.5,26.0,33.0,24.9,18.0,98,75,41,0.00,40.00,12,5,30,0.16
2014-3-18,49.0,33.6,21.0,22.0,18.9,15.0,91,59,31,0.00,40.00,4,3,11,0.07
2014-3-19,57.0,43.2,28.0,26.0,22.2,17.0,70,45,27,0.00,40.00,14,11,30,0.00
2014-3-20,47.0,33.5,23.0,26.0,18.6,14.0,93,59,26,0.00,40.00,12,4,27,0.00
2014-3-21,45.0,32.2,21.0,20.0,16.8,14.0,79,55,33,0.00,40.00,5,2,13,0.00
2014-3-22,57.0,38.7,23.0,19.0,13.7,-99.9,78,43,13,0.00,40.00,4,2,10,0.00
2014-3-23,60.0,52.9,29.0,22.0,17.8,14.0,64,27,17,0.00,40.00,5,4,10,0.00
2014-3-24,69.0,56.2,40.0,28.0,19.6,14.0,51,26,13,0.00,40.00,10,6,20,0.00
2014-3-25,50.0,41.0,35.0,35.0,27.4,18.0,82,59,40,0.00,40.00,15,11,38,0.00
2014-3-26,46.0,34.5,29.0,34.0,30.0,27.0,96,84,56,0.00,40.00,15,9,25,0.02
2014-3-27,40.0,33.6,30.0,33.0,30.1,28.0,97,88,66,0.00,40.00,16,12,32,0.04
2014-3-28,46.0,37.9,32.0,41.0,35.7,31.0,99,92,78,0.00,40.00,17,13,33,0.38
2014-3-29,44.0,35.8,31.0,37.0,30.1,-99.9,99,85,51,0.00,40.00,17,10,28,0.36
2014-3-30,44.0,33.3,29.0,31.0,27.4,23.0,98,81,44,0.00,40.00,10,6,19,0.03
2014-3-31,45.0,33.6,27.0,31.0,27.6,23.0,97,81,43,0.00,40.00,10,4,19,0.05
2014-4-1,33.0,30.5,26.0,32.0,29.5,25.0,99,96,92,0.00,40.00,9,4,17,0.11
2014-4-2,50.0,36.3,27.0,37.0,29.6,26.0,99,79,47,0.00,40.00,10,5,17,0.59
2014-4-3,48.0,37.9,28.0,32.0,27.8,24.0,94,69,41,0.00,40.00,10,7,19,0.02
2014-4-4,52.0,37.9,32.0,30.0,28.6,26.0,89,71,39,0.00,40.00,9,7,19,0.00
2014-4-5,52.0,38.7,33.0,35.0,31.4,-99.9,91,79,53,0.00,40.00,16,10,27,0.00
2014-4-6,60.0,46.4,37.0,40.0,35.9,32.0,99,71,36,0.00,40.00,16,8,26,0.03
2014-4-7,74.0,60.3,38.0,38.0,32.8,26.0,85,40,18,0.00,40.00,8,5,16,0.00
2014-4-8,74.0,59.6,40.0,39.0,33.2,27.0,90,42,18,0.00,40.00,11,8,21,0.00
2014-4-9,62.0,47.0,37.0,42.0,36.2,28.0,88,68,34,0.00,40.00,11,5,16,0.00
2014-4-10,65.0,51.8,31.0,34.0,26.3,21.0,95,42,19,0.00,40.00,7,3,14,0.00
2014-4-11,69.0,57.4,42.0,32.0,27.0,20.0,61,33,21,0.00,40.00,4,3,12,0.00
2014-4-12,63.0,50.6,36.0,31.0,18.9,-99.9,65,33,13,0.00,40.00,5,3,13,0.00
2014-4-13,59.0,47.7,33.0,29.0,22.1,19.0,71,39,23,0.00,40.00,5,3,15,0.00
2014-4-14,68.0,53.0,38.0,32.0,22.0,19.0,63,34,15,0.00,40.00,12,8,20,0.00
2014-4-15,55.0,43.5,33.0,33.0,27.0,23.0,76,54,33,0.00,40.00,15,6,24,0.00
2014-4-16,59.0,44.7,32.0,36.0,29.1,21.0,77,56,33,0.00,40.00,10,4,15,0.00
2014-4-17,46.0,42.2,38.0,42.0,36.1,32.0,92,79,70,0.00,40.00,14,9,24,0.04
2014-4-18,60.0,44.0,30.0,32.0,22.2,17.0,82,49,19,0.00,40.00,12,5,21,0.04
2014-4-19,58.0,43.4,33.0,34.0,24.2,-99.9,79,52,15,0.00,40.00,14,10,31,0.00
2014-4-20,69.0,49.2,32.0,30.0,26.0,23.0,85,47,20,0.00,40.00,9,6,18,0.00
2014-4-21,61.0,49.5,36.0,39.0,33.4,26.0,97,56,33,0.00,40.00,13,6,27,0.04
2014-4-22,48.0,36.9,31.0,35.0,27.4,22.0,98,72,39,0.00,40.00,13,9,25,0.08
2014-4-23,43.0,36.6,30.0,38.0,31.9,25.0,96,83,68,0.00,40.00,15,11,31,0.13
2014-4-24,49.0,40.2,34.0,41.0,35.6,30.0,96,84,55,0.00,40.00,18,12,35,0.24
2014-4-25,43.0,34.1,28.0,35.0,29.9,26.0,98,85,61,0.00,40.00,6,3,13,0.21
2014-4-26,47.0,33.3,26.0,27.0,23.3,20.0,94,71,36,0.00,40.00,9,7,18,0.12
2014-4-28,58.0,48.7,41.0,25.0,20.0,17.0,53,34,20,0.00,40.00,3,2,8,0.00
2014-4-29,69.0,58.0,41.0,32.0,29.8,25.0,56,35,23,0.00,40.00,5,4,13,0.00
2014-4-30,78.0,60.4,41.0,33.0,23.8,10.0,57,32,8,0.00,40.00,6,3,16,0.00
2014-5-1,84.0,66.6,46.0,35.0,25.5,12.0,52,26,7,0.00,40.00,8,4,15,0.00
2014-5-2,74.0,64.8,49.0,42.0,35.8,25.0,75,38,18,0.00,40.00,11,7,20,0.00
2014-5-3,62.0,49.2,40.0,41.0,33.4,-99.9,85,59,33,0.00,40.00,12,8,24,0.00
2014-5-4,51.0,43.4,37.0,43.0,35.3,32.0,89,74,55,0.00,40.00,17,9,29,0.12
2014-5-5,53.0,41.1,34.0,35.0,32.0,28.0,97,72,42,0.00,40.00,8,5,14,0.02
2014-5-6,56.0,43.5,31.0,33.0,30.2,27.0,91,62,37,0.00,40.00,5,3,14,0.01
2014-5-13,77.0,64.5,53.0,31.0,28.2,25.0,38,26,16,0.00,40.00,4,3,12,0.00
2014-5-14,82.0,69.7,52.0,36.0,31.0,27.0,46,26,14,0.00,40.00,4,3,10,0.00
2014-5-15,83.0,72.0,58.0,41.0,37.9,33.0,48,31,18,0.00,40.00,9,6,17,0.00
2014-5-16,73.0,59.9,47.0,40.0,30.8,24.0,53,35,17,0.00,40.00,12,8,23,0.00
2014-5-17,70.0,54.5,42.0,39.0,31.8,-99.9,84,47,23,0.00,40.00,10,6,17,0.00
2014-5-18,55.0,44.9,37.0,41.0,36.3,34.0,97,74,48,0.00,40.00,13,8,22,0.15
2014-5-19,59.0,43.8,38.0,42.0,33.9,-99.9,98,76,47,0.00,40.00,9,4,15,0.45
2014-5-20,66.0,50.9,37.0,45.0,36.3,-99.9,99,66,27,0.00,40.00,5,2,14,0.37
2014-5-21,74.0,57.1,41.0,43.0,36.3,28.0,91,52,19,0.00,40.00,5,3,16,0.00
2014-5-22,78.0,60.4,46.0,44.0,37.2,-99.9,77,47,23,0.00,40.00,4,2,10,0.00
2014-5-23,68.0,57.6,48.0,50.0,44.7,42.0,84,63,40,0.00,40.00,8,5,19,0.01
2014-5-24,74.0,56.1,42.0,43.0,36.6,-99.9,88,55,22,0.00,40.00,7,4,12,0.01
2014-5-25,77.0,58.2,48.0,43.0,37.7,28.0,83,51,24,0.00,40.00,11,8,21,0.00
2014-5-26,68.0,54.3,43.0,42.0,36.8,33.0,82,55,29,0.00,40.00,10,6,20,0.00
2014-5-27,65.0,49.0,40.0,38.0,34.5,27.0,90,61,29,0.00,40.00,7,3,20,0.00
2014-5-28,54.0,42.9,34.0,32.0,30.1,26.0,88,63,33,0.00,40.00,11,7,25,0.00
2014-5-29,67.0,48.5,32.0,33.0,29.0,25.0,91,54,21,0.00,40.00,8,4,15,0.00
2014-5-30,78.0,54.9,39.0,40.0,34.1,27.0,86,51,16,0.00,40.00,8,3,15,0.01
2014-5-31,71.0,56.9,44.0,43.0,36.5,-99.9,90,52,25,0.00,40.00,6,3,13,0.01
2014-6-1,76.0,54.5,43.0,44.0,40.8,39.0,87,65,28,0.00,40.00,5,3,10,0.00
2014-6-2,76.0,68.7,53.0,40.0,36.1,31.0,56,31,24,0.00,40.00,7,4,14,0.00
2014-6-3,75.0,59.1,47.0,42.0,34.7,25.0,80,46,17,0.00,40.00,9,6,17,0.00
2014-6-4,80.0,59.6,42.0,35.0,27.8,13.0,74,38,9,0.00,40.00,5,3,13,0.00
2014-6-5,78.0,61.2,46.0,39.0,33.6,29.0,66,39,19,0.00,40.00,6,3,14,0.00
2014-6-6,77.0,60.1,44.0,31.0,25.5,20.0,48,29,13,0.00,40.00,4,3,12,0.00
2014-6-7,74.0,58.9,47.0,40.0,31.3,-99.9,69,37,26,0.00,40.00,5,3,13,0.00
2014-6-8,76.0,61.1,45.0,44.0,38.9,35.0,80,49,23,0.00,40.00,5,3,11,0.00
2014-6-9,77.0,61.2,48.0,45.0,39.3,23.0,79,49,19,0.00,40.00,5,3,13,0.00
2014-6-10,75.0,60.1,46.0,38.0,33.4,27.0,71,41,21,0.00,40.00,7,4,16,0.00
2014-6-11,78.0,58.8,41.0,37.0,32.9,27.0,73,43,17,0.00,40.00,7,3,12,0.00
2014-6-12,69.0,55.7,42.0,42.0,37.4,32.0,76,53,26,0.00,40.00,13,8,27,0.00
2014-6-13,56.0,46.2,39.0,38.0,36.2,33.0,90,70,49,0.00,40.00,13,9,25,0.00
2014-6-14,65.0,48.0,36.0,35.0,31.4,-99.9,84,59,27,0.00,40.00,10,6,17,0.00
2014-6-15,61.0,48.0,39.0,38.0,35.0,33.0,81,63,36,0.00,40.00,9,5,19,0.00
2014-6-16,51.0,42.1,35.0,36.0,31.0,26.0,89,66,42,0.00,40.00,10,5,19,0.01
2014-6-17,61.0,44.0,33.0,36.0,32.5,30.0,91,67,35,0.00,40.00,7,4,13,0.01
2014-6-18,75.0,54.4,37.0,40.0,37.2,35.0,92,59,27,0.00,40.00,8,5,15,0.00
2014-6-19,81.0,61.6,46.0,43.0,39.2,35.0,87,50,19,0.00,40.00,11,7,20,0.00
2014-6-20,74.0,58.0,45.0,44.0,38.5,29.0,84,54,20,0.00,40.00,9,6,15,0.00
2014-6-21,72.0,54.7,40.0,40.0,34.3,-99.9,90,54,22,0.00,40.00,5,2,11,0.00
2014-6-22,80.0,62.3,47.0,39.0,30.8,24.0,61,35,14,0.00,40.00,5,2,13,0.00
2014-6-23,84.0,63.4,53.0,44.0,36.2,24.0,61,39,16,0.00,40.00,11,4,21,0.00
2014-6-24,74.0,60.5,49.0,46.0,43.6,41.0,86,57,33,0.00,40.00,6,4,16,0.00
2014-6-25,65.0,54.8,48.0,54.0,48.5,43.0,99,81,52,0.00,40.00,7,2,11,0.35
2014-6-26,67.0,54.7,48.0,49.0,47.1,44.0,100,78,47,0.00,40.00,13,8,24,0.21
2014-6-27,65.0,54.1,47.0,54.0,47.0,42.0,96,78,53,0.00,40.00,13,9,24,0.23
2014-6-28,72.0,55.8,46.0,44.0,39.9,-99.9,83,60,35,0.00,40.00,10,6,23,0.01
2014-6-29,74.0,57.5,43.0,41.0,39.1,36.0,86,55,28,0.00,40.00,9,5,16,0.00
2014-6-30,82.0,61.9,43.0,44.0,39.2,33.0,90,53,17,0.00,40.00,5,2,12,0.00
2014-7-1,91.0,69.9,51.0,45.0,40.7,37.0,59,38,18,0.00,40.00,5,3,13,0.00
2014-7-2,87.0,71.6,62.0,55.0,48.0,42.0,73,45,23,0.00,40.00,6,3,20,0.00
2014-7-3,87.0,66.8,53.0,54.0,45.3,33.0,92,55,15,0.00,40.00,10,6,17,0.00
2014-7-4,89.0,66.2,52.0,48.0,40.8,32.0,82,46,14,0.00,40.00,10,6,24,0.00
2014-7-5,91.0,70.3,55.0,44.0,36.1,-99.9,67,35,12,0.00,40.00,8,6,15,0.00
2014-7-6,89.0,72.3,57.0,48.0,43.5,34.0,61,39,16,0.00,40.00,5,3,13,0.00
2014-7-7,91.0,73.0,57.0,49.0,45.9,42.0,63,41,21,0.00,40.00,4,2,10,0.00
2014-7-8,93.0,76.1,61.0,54.0,49.9,42.0,66,43,19,0.00,40.00,5,2,20,0.00
2014-7-9,96.0,78.3,62.0,57.0,48.7,40.0,80,41,15,0.00,40.00,7,3,17,0.00
2014-7-10,95.0,76.6,56.0,49.0,36.9,23.0,71,30,10,0.00,40.00,9,5,15,0.00
2014-7-11,79.0,69.1,59.0,51.0,45.8,39.0,64,44,27,0.00,40.00,10,4,19,0.00
2014-7-12,96.0,74.9,59.0,52.0,44.3,39.0,63,37,15,0.00,40.00,5,2,12,0.00
2014-7-13,86.0,72.9,63.0,57.0,45.4,40.0,65,39,23,0.00,40.00,5,3,15,0.01
2014-7-14,90.0,75.4,59.0,49.0,45.5,41.0,59,37,20,0.00,40.00,5,3,12,0.01
2014-7-15,93.0,77.7,61.0,47.0,40.9,36.0,48,29,16,0.00,40.00,4,3,13,0.00
2014-7-16,95.0,78.9,64.0,48.0,43.8,37.0,46,31,15,0.00,40.00,6,4,12,0.00
2014-7-17,92.0,74.0,61.0,47.0,41.0,35.0,52,33,14,0.00,40.00,9,5,18,0.00
2014-7-18,89.0,69.1,52.0,44.0,34.5,18.0,53,32,8,0.00,40.00,8,5,14,0.00
2014-7-19,88.0,68.9,55.0,49.0,42.7,38.0,71,43,18,0.00,40.00,6,3,13,0.00
2014-7-20,87.0,67.1,57.0,50.0,44.9,30.0,66,48,25,0.00,40.00,12,9,22,0.00
2014-7-21,81.0,65.2,54.0,40.0,35.6,29.0,52,34,22,0.00,40.00,12,5,20,0.00
2014-7-22,76.0,62.4,55.0,59.0,51.2,40.0,85,68,42,0.00,40.00,10,6,20,0.04
2014-7-23,60.0,53.2,42.0,52.0,47.9,36.0,97,83,61,0.00,40.00,12,7,24,0.13
2014-7-24,70.0,53.8,39.0,42.0,38.0,33.0,84,59,30,0.00,40.00,12,5,21,0.02
2014-7-25,82.0,62.0,42.0,45.0,39.0,31.0,94,52,17,0.00,40.00,7,3,11,0.00
2014-7-26,87.0,67.0,51.0,47.0,41.2,34.0,78,43,18,0.00,40.00,5,3,11,0.00
2014-7-27,81.0,68.8,58.0,43.0,40.1,34.0,55,37,19,0.00,40.00,12,2,21,0.00
2014-7-28,94.0,75.1,60.0,46.0,40.2,35.0,50,31,13,0.00,40.00,6,3,12,0.00
2014-7-29,93.0,74.3,64.0,53.0,44.9,35.0,57,38,14,0.00,40.00,12,2,26,0.00
2014-7-30,93.0,75.0,60.0,48.0,41.3,33.0,56,33,14,0.00,40.00,13,6,32,0.00
2014-7-31,91.0,75.1,66.0,48.0,40.4,40.0,39,32,17,0.00,40.00,8,4,14,0.01
2014-8-1,91.0,75.5,61.0,50.0,45.0,41.0,56,36,19,0.00,40.00,8,4,14,0.01
2014-8-2,88.0,72.5,61.0,54.0,46.5,40.0,68,40,26,0.00,40.00,6,3,19,0.00
2014-8-3,86.0,70.9,60.0,55.0,48.8,40.0,79,49,28,0.00,40.00,5,2,13,0.00
2014-8-4,90.0,74.2,62.0,55.0,45.8,41.0,54,38,21,0.00,40.00,9,2,15,0.00
2014-8-5,88.0,72.9,61.0,55.0,47.5,40.0,78,45,19,0.00,40.00,9,5,15,0.00
2014-8-6,86.0,67.0,53.0,47.0,37.7,33.0,57,37,19,0.00,40.00,8,5,12,0.00
2014-8-7,86.0,75.0,59.0,49.0,40.2,29.0,66,32,13,0.00,40.00,6,4,13,0.00
2014-8-8,83.0,65.9,53.0,44.0,36.7,29.0,61,37,19,0.00,40.00,7,4,14,0.00
2014-8-9,85.0,66.2,53.0,40.0,35.5,32.0,51,35,18,0.00,40.00,4,3,13,0.00
2014-8-10,91.0,72.8,58.0,56.0,39.2,29.0,80,34,17,0.00,40.00,10,3,27,0.03
2014-8-11,92.0,70.1,58.0,55.0,47.8,36.0,79,52,15,0.00,40.00,8,4,23,0.05
2014-8-12,76.0,60.7,54.0,53.0,50.0,46.0,95,70,41,0.00,40.00,14,7,29,0.54
2014-8-13,74.0,55.1,48.0,51.0,47.8,45.0,96,79,37,0.00,40.00,8,4,23,0.53
2014-8-14,65.0,54.2,47.0,52.0,48.8,46.0,98,83,54,0.00,40.00,8,4,12,0.25
2014-8-15,76.0,60.8,50.0,52.0,49.4,47.0,97,70,39,0.00,40.00,7,4,13,0.00
2014-8-16,86.0,71.0,52.0,53.0,44.3,37.0,98,41,24,0.00,40.00,8,4,13,0.00
2014-8-17,86.0,71.9,58.0,51.0,46.6,34.0,75,45,16,0.00,40.00,13,5,29,0.02
2014-8-18,84.0,74.1,57.0,51.0,46.5,42.0,67,40,25,0.00,40.00,5,4,18,0.02
2014-8-19,83.0,71.9,58.0,56.0,48.0,42.0,79,46,25,0.00,40.00,7,4,15,0.00
2014-8-20,74.0,62.8,53.0,50.0,46.6,37.0,86,59,36,0.00,40.00,10,7,19,0.00
2014-8-21,78.0,63.9,50.0,45.0,37.4,18.0,77,42,11,0.00,40.00,9,6,14,0.00
2014-8-22,72.0,61.3,49.0,42.0,38.8,35.0,65,45,30,0.00,40.00,9,4,14,0.00
2014-8-23,73.0,60.0,48.0,47.0,40.9,39.0,82,50,30,0.00,40.00,5,3,12,0.00
2014-8-24,77.0,65.7,50.0,51.0,40.8,36.0,87,45,23,0.00,40.00,5,3,10,0.02
2014-8-25,75.0,59.4,44.0,47.0,43.5,38.0,94,60,32,0.00,40.00,5,2,16,0.02
2014-8-26,82.0,75.0,58.0,43.0,33.9,31.0,50,24,16,0.00,40.00,4,3,11,0.00
2014-8-27,91.0,79.9,65.0,47.0,43.6,40.0,53,29,17,0.00,40.00,11,7,17,0.00
2014-8-28,86.0,75.0,61.0,50.0,41.0,30.0,60,34,14,0.00,40.00,10,7,20,0.00
2014-8-29,85.0,71.1,56.0,48.0,41.6,36.0,67,37,18,0.00,40.00,10,7,19,0.00
2014-8-30,64.0,55.2,48.0,48.0,43.7,41.0,78,65,48,0.00,40.00,10,8,20,0.00
2014-8-31,72.0,53.7,43.0,42.0,40.1,39.0,92,64,32,0.00,40.00,8,5,13,0.00
2014-9-1,78.0,64.3,48.0,45.0,40.8,39.0,82,47,25,0.00,40.00,7,3,10,0.00
2014-9-2,83.0,65.9,52.0,46.0,38.8,31.0,79,42,16,0.00,40.00,10,8,20,0.00
2014-9-3,70.0,53.4,40.0,38.0,32.0,27.0,80,49,20,0.00,40.00,9,5,18,0.00
2014-9-4,73.0,58.9,41.0,39.0,34.4,31.0,76,43,21,0.00,40.00,5,3,12,0.00
2014-9-5,77.0,60.6,44.0,40.0,33.9,29.0,69,41,21,0.00,40.00,5,3,13,0.00
2014-9-6,83.0,67.0,49.0,34.0,29.8,26.0,47,26,14,0.00,40.00,4,3,10,0.00
2014-9-7,84.0,76.3,58.0,37.0,26.2,16.0,44,17,12,0.00,40.00,5,3,11,0.00
2014-9-8,83.0,71.1,54.0,37.0,28.1,23.0,42,23,12,0.00,40.00,9,5,15,0.00
2014-9-9,73.0,58.7,48.0,43.0,37.1,31.0,76,48,23,0.00,40.00,10,6,19,0.00
2014-9-10,76.0,65.0,48.0,40.0,36.6,31.0,66,37,24,0.00,40.00,4,3,10,0.00
2014-9-11,66.0,50.3,37.0,31.0,24.6,18.0,52,38,23,0.00,40.00,5,3,12,0.00
2014-9-12,84.0,60.4,39.0,31.0,26.2,21.0,54,30,14,0.00,40.00,8,3,11,0.00
2014-9-13,79.0,62.2,45.0,30.0,26.1,22.0,40,26,17,0.00,40.00,5,2,12,0.00
2014-9-14,86.0,72.2,56.0,34.0,30.9,26.0,31,22,15,0.00,40.00,7,4,15,0.00
2014-9-15,87.0,73.0,56.0,35.0,32.8,26.0,35,24,15,0.00,40.00,9,4,20,0.00
2014-9-16,86.0,72.3,57.0,37.0,31.2,25.0,43,25,11,0.00,40.00,10,5,18,0.00
2014-9-17,81.0,69.6,57.0,40.0,32.7,26.0,51,29,14,0.00,40.00,10,5,26,0.00
2014-9-18,70.0,54.8,51.0,51.0,44.3,40.0,91,65,3,0.00,40.00,11,7,16,0.04
2014-9-19,79.0,65.7,52.0,51.0,45.2,41.0,89,52,27,0.00,40.00,8,3,13,0.00
2014-9-20,83.0,70.8,57.0,49.0,45.1,43.0,62,40,27,0.00,40.00,5,3,11,0.00
2014-9-21,87.0,72.5,56.0,51.0,45.8,41.0,63,42,21,0.00,40.00,6,3,11,0.00
2014-9-22,82.0,67.1,56.0,51.0,45.6,41.0,81,50,26,0.00,40.00,10,6,18,0.00
2014-9-23,71.0,64.2,52.0,47.0,43.2,36.0,77,49,34,0.00,40.00,12,7,21,0.00
2014-9-24,64.0,51.0,45.0,52.0,43.2,36.0,99,75,35,0.00,40.00,12,6,28,0.55
2014-9-25,58.0,47.9,43.0,46.0,43.2,39.0,100,85,60,0.00,40.00,12,7,24,0.31
2014-9-26,62.0,48.7,41.0,42.0,39.3,37.0,95,72,44,0.00,40.00,9,5,14,0.01
2014-9-27,59.0,47.8,41.0,45.0,42.4,41.0,100,82,56,0.00,40.00,6,3,16,0.03
2014-9-28,66.0,53.8,45.0,46.0,43.7,41.0,96,70,49,0.00,40.00,5,3,15,0.02
2014-9-29,69.0,57.7,47.0,46.0,42.5,37.0,83,60,31,0.00,40.00,9,8,20,0.00
2014-10-4,83.0,73.2,54.0,36.0,28.1,26.0,49,19,14,0.00,40.00,7,3,12,0.00
2014-10-5,84.0,77.8,56.0,39.0,35.6,33.0,49,23,17,0.00,40.00,5,3,11,0.00
2014-10-6,86.0,75.4,56.0,44.0,37.4,29.0,59,28,13,0.00,40.00,7,4,12,0.00
2014-10-7,83.0,74.0,55.0,40.0,32.2,27.0,56,23,14,0.00,40.00,9,5,15,0.00
2014-10-8,77.0,64.9,50.0,40.0,33.2,27.0,67,33,19,0.00,40.00,8,4,12,0.00
2014-10-9,72.0,65.3,55.0,38.0,31.8,29.0,48,29,21,0.00,40.00,4,2,9,0.00
2014-10-10,75.0,62.9,51.0,40.0,36.6,31.0,56,39,23,0.00,40.00,14,8,22,0.00
2014-10-11,61.0,52.5,43.0,47.0,38.0,32.0,77,58,35,0.00,40.00,15,9,24,0.00
2014-10-12,67.0,50.5,36.0,36.0,30.7,16.0,92,55,17,0.00,40.00,8,5,12,0.00
2014-10-13,78.0,61.2,40.0,30.0,21.3,13.0,55,25,10,0.00,40.00,15,12,29,0.00
2014-10-14,58.0,51.1,44.0,43.0,34.3,21.0,97,55,29,0.00,40.00,13,5,23,0.07
2014-10-15,52.0,43.1,38.0,43.0,37.1,34.0,98,81,53,0.00,40.00,16,10,30,0.28
2014-10-16,63.0,46.9,36.0,38.0,33.4,28.0,88,64,31,0.00,40.00,7,5,13,0.07
2014-10-17,55.0,48.4,44.0,45.0,38.6,33.0,80,69,53,0.00,40.00,12,7,21,0.00
2014-10-18,69.0,54.1,45.0,45.0,41.3,39.0,86,64,38,0.00,40.00,10,7,18,0.00
2014-10-19,70.0,58.0,43.0,41.0,37.8,36.0,82,50,30,0.00,40.00,14,9,26,0.00
2014-10-20,56.0,47.1,40.0,47.0,38.5,37.0,95,74,54,0.00,40.00,12,8,22,0.07
2014-10-21,52.0,41.7,36.0,38.0,35.5,33.0,94,80,58,0.00,40.00,13,9,21,0.01
2014-10-22,55.0,47.8,42.0,45.0,38.9,35.0,95,72,54,0.00,40.00,18,14,36,0.05
2014-10-23,47.0,44.5,41.0,46.0,42.6,38.0,99,93,87,0.00,40.00,14,10,27,0.48
2014-10-24,51.0,43.0,40.0,48.0,42.3,39.0,100,97,89,0.00,40.00,11,3,17,0.19
2014-10-25,55.0,46.6,37.0,42.0,38.2,34.0,100,75,50,0.00,40.00,24,13,44,0.10
2014-10-26,40.0,36.3,33.0,36.0,33.3,32.0,98,89,73,0.00,40.00,14,11,25,0.05
2014-10-27,52.0,39.5,32.0,35.0,31.7,29.0,93,75,46,0.00,40.00,11,6,19,0.01
2014-10-28,53.0,43.6,34.0,46.0,37.4,31.0,98,79,53,0.00,40.00,15,11,32,0.04
2014-10-29,55.0,47.5,41.0,46.0,42.6,38.0,99,84,70,0.00,40.00,11,6,19,0.01
2014-10-30,60.0,50.8,45.0,48.0,44.9,43.0,98,82,58,0.00,40.00,9,4,16,0.12
2014-10-31,46.0,40.9,36.0,45.0,39.4,35.0,99,95,84,0.00,40.00,13,4,23,0.33
2014-11-1,47.0,37.2,32.0,35.0,30.9,26.0,99,81,44,0.00,40.00,9,3,15,0.01
2014-11-2,48.0,37.7,31.0,37.0,32.4,28.0,95,82,58,0.00,40.00,11,8,18,0.01
2014-11-3,48.0,42.5,38.0,41.0,37.0,34.0,92,81,72,0.00,40.00,13,9,22,0.01
2014-11-4,48.0,44.9,41.0,46.0,42.1,35.0,99,90,72,0.00,40.00,19,12,34,0.02
2014-11-5,61.0,48.9,39.0,48.0,44.1,39.0,99,85,61,0.00,40.00,13,9,22,0.01
2014-11-6,59.0,48.9,40.0,45.0,40.2,35.0,84,73,51,0.00,40.00,22,12,39,0.00
2014-11-7,57.0,44.0,34.0,37.0,34.5,32.0,97,72,44,0.00,40.00,13,4,20,0.00
2014-11-8,65.0,54.6,39.0,42.0,38.0,33.0,80,53,41,0.00,40.00,14,9,21,0.00
2014-11-9,55.0,45.6,32.0,43.0,34.0,27.0,81,65,37,0.00,40.00,14,10,26,0.00
2014-11-10,46.0,34.3,24.0,31.0,26.2,21.0,87,74,48,0.00,40.00,6,2,10,0.00
2014-11-11,35.0,22.8,12.0,21.0,15.0,2.0,89,73,51,0.00,40.00,5,3,15,0.00
2014-11-12,27.0,13.5,4.0,8.0,3.6,-1.0,83,64,44,0.00,40.00,4,2,11,0.00
2014-11-13,37.0,20.0,11.0,37.0,16.8,5.0,99,87,64,0.00,40.00,10,3,16,0.41
2014-11-14,36.0,23.9,11.0,36.0,22.1,8.0,99,93,87,0.00,40.00,9,3,20,1.37
2014-11-15,26.0,13.1,7.0,17.0,8.4,3.0,87,80,68,0.00,40.00,3,1,7,0.12
2014-11-16,38.0,18.9,7.0,27.0,13.7,3.0,92,81,57,0.00,40.00,8,4,14,0.19
2014-11-17,43.0,26.1,16.0,29.0,19.4,13.0,92,77,48,0.00,40.00,8,5,14,0.10
2014-11-18,40.0,30.4,20.0,21.0,18.6,15.0,82,63,45,0.00,40.00,15,10,24,0.01
2014-11-19,51.0,37.3,32.0,35.0,24.1,17.0,98,61,37,0.00,40.00,11,4,19,0.06
2014-11-20,44.0,37.3,34.0,37.0,34.6,33.0,99,90,74,0.00,40.00,12,7,24,0.06
2014-11-21,41.0,36.4,32.0,40.0,35.3,32.0,99,96,85,0.00,40.00,24,14,44,0.45
2014-11-22,41.0,33.6,29.0,40.0,32.4,28.0,98,95,93,0.00,40.00,15,8,34,0.60
2014-11-23,40.0,33.8,30.0,32.0,29.6,27.0,97,85,66,0.00,40.00,17,10,26,0.12
2014-11-24,44.0,37.6,29.0,42.0,30.6,26.0,96,77,51,0.00,40.00,19,12,36,0.04
2014-11-25,47.0,44.3,41.0,44.0,41.0,37.0,98,88,78,0.00,40.00,17,13,32,0.02
2014-11-26,54.0,44.3,34.0,39.0,34.3,29.0,98,71,48,0.00,40.00,15,10,24,0.01
2014-11-27,49.0,42.9,40.0,41.0,36.6,27.0,97,81,43,0.00,40.00,21,19,38,0.45
2014-11-28,41.0,38.5,34.0,39.0,36.0,31.0,98,91,68,0.00,40.00,20,15,37,0.75
2014-11-29,35.0,29.2,19.0,34.0,25.0,17.0,99,84,66,0.00,40.00,18,10,38,0.64
2014-11-30,27.0,21.6,19.0,20.0,18.4,17.0,94,88,70,0.00,40.00,7,2,12,0.01
2014-12-1,37.0,30.5,23.0,37.0,28.9,20.0,99,94,83,0.00,40.00,11,9,17,0.47
2014-12-2,36.0,28.8,18.0,36.0,28.2,16.0,100,97,92,0.00,40.00,10,4,15,0.05
2014-12-3,30.0,21.1,16.0,30.0,19.3,14.0,99,93,91,0.00,40.00,8,2,11,0.02
2014-12-4,44.0,37.8,30.0,40.0,35.2,30.0,100,91,85,0.00,40.00,13,9,23,0.23
2014-12-5,46.0,39.7,35.0,40.0,36.8,34.0,98,90,69,0.00,40.00,13,6,23,0.01
2014-12-6,46.0,38.8,35.0,40.0,34.0,30.0,98,82,67,0.00,40.00,16,8,29,0.13
2014-12-7,48.0,37.6,31.0,37.0,33.1,29.0,96,84,65,0.00,40.00,10,7,18,0.01
2014-12-8,48.0,43.7,38.0,41.0,38.4,35.0,93,81,72,0.00,40.00,16,9,28,0.00
2014-12-9,50.0,45.1,42.0,43.0,39.9,38.0,96,81,74,0.00,40.00,18,11,36,0.04
2014-12-10,49.0,43.2,39.0,41.0,34.4,32.0,90,69,58,0.00,40.00,18,14,39,0.07
2014-12-11,48.0,41.7,37.0,39.0,35.3,33.0,94,78,62,0.00,40.00,20,13,42,0.10
2014-12-12,38.0,34.2,30.0,36.0,33.4,28.0,99,97,88,0.00,40.00,7,2,17,0.23
2014-12-13,41.0,31.7,27.0,30.0,27.0,23.0,94,83,61,0.00,40.00,8,6,14,0.03
2014-12-14,39.0,28.0,23.0,28.0,23.5,22.0,97,83,56,0.00,40.00,9,4,14,0.02
2014-12-15,37.0,28.9,24.0,32.0,27.3,23.0,98,94,81,0.00,40.00,2,1,5,0.04
2014-12-16,40.0,32.7,26.0,32.0,29.0,25.0,97,87,73,0.00,40.00,10,4,16,0.02
2014-12-17,41.0,34.3,29.0,34.0,30.6,27.0,98,87,67,0.00,40.00,10,6,19,0.05
2014-12-18,44.0,35.7,31.0,35.0,31.9,30.0,99,86,71,0.00,40.00,15,10,27,0.01
2014-12-19,37.0,34.1,32.0,35.0,32.5,30.0,99,94,82,0.00,40.00,15,9,30,0.13
2014-12-20,42.0,33.3,33.0,42.0,32.1,32.0,99,96,96,0.00,40.00,19,14,34,1.22
2014-12-21,44.0,42.1,41.0,44.0,41.3,40.0,99,97,95,0.00,40.00,18,11,34,1.04
2014-12-22,48.0,41.0,37.0,42.0,38.0,33.0,99,89,71,0.00,40.00,10,4,19,0.02
2014-12-23,48.0,40.2,35.0,40.0,37.7,35.0,100,91,74,0.00,40.00,16,11,26,0.00
2014-12-24,40.0,32.8,23.0,36.0,30.3,21.0,98,90,84,0.00,40.00,18,8,33,0.01
2014-12-25,39.0,29.0,25.0,28.0,23.9,21.0,92,82,63,0.00,40.00,5,2,13,0.32
2014-12-26,39.0,30.0,23.0,26.0,22.8,18.0,88,75,58,0.00,40.00,9,2,11,0.03
2014-12-27,35.0,27.3,21.0,31.0,24.0,19.0,93,86,68,0.00,40.00,13,11,24,0.02
2014-12-28,37.0,30.1,25.0,31.0,23.1,18.0,91,76,51,0.00,40.00,13,9,26,0.02
2014-12-29,26.0,20.0,9.0,25.0,17.7,6.0,95,90,86,0.00,40.00,11,6,24,0.01
2014-12-30,15.0,6.2,1.0,9.0,1.8,-3.0,86,81,76,0.00,40.00,5,3,16,0.00
2014-12-31,26.0,15.2,10.0,16.0,7.6,2.0,79,72,63,0.00,40.00,4,2,9,0.19
2015-1-1,34.0,28.5,23.0,18.0,14.5,10.0,64,55,46,0.00,40.00,4,3,7,0.07
2015-1-2,47.0,39.4,27.0,31.0,28.5,21.0,77,65,51,0.00,40.00,15,12,25,0.01